createdAt,value
2022-10-01T00:01:17.653Z,97416.78
2022-10-01T00:03:45.191Z,97426.97
2022-10-01T00:06:16.650Z,97416.66
2022-10-01T00:08:48.996Z,97416.22
2022-10-01T00:11:21.410Z,97419.88
2022-10-01T00:13:49.077Z,97413.28
2022-10-01T00:16:27.805Z,97418.25
2022-10-01T00:18:55.342Z,97420.59
2022-10-01T00:21:25.246Z,97418.69
2022-10-01T00:23:56.911Z,97425.97
2022-10-01T00:26:27.163Z,97415.91
2022-10-01T00:28:57.655Z,97422.50
2022-10-01T00:31:25.326Z,97431.84
2022-10-01T00:33:53.904Z,97438.69
2022-10-01T00:36:21.867Z,97436.56
2022-10-01T00:38:48.999Z,97431.28
2022-10-01T00:41:17.768Z,97433.41
2022-10-01T00:43:49.829Z,97425.75
2022-10-01T00:46:43.348Z,97416.03
2022-10-01T00:49:24.252Z,97414.69
2022-10-01T00:51:56.492Z,97410.38
2022-10-01T00:54:31.043Z,97374.38
2022-10-01T00:56:59.812Z,97400.72
2022-10-01T00:59:28.447Z,97406.28
2022-10-01T01:01:55.475Z,97402.13
2022-10-01T01:04:22.946Z,97392.72
2022-10-01T01:06:55.832Z,97392.63
2022-10-01T01:09:30.652Z,97407.44
2022-10-01T01:12:09.321Z,97404.31
2022-10-01T01:14:42.151Z,97405.38
2022-10-01T01:17:14.636Z,97405.47
2022-10-01T01:19:50.654Z,97405.38
2022-10-01T01:22:21.550Z,97398.25
2022-10-01T01:25:13.225Z,97398.34
2022-10-01T01:27:53.624Z,97392.34
2022-10-01T01:30:20.833Z,97407.25
2022-10-01T01:33:06.057Z,97413.31
2022-10-01T01:35:44.111Z,97410.81
2022-10-01T01:38:15.541Z,97415.44
2022-10-01T01:40:46.785Z,97414.94
2022-10-01T01:43:20.566Z,97424.00
2022-10-01T01:45:52.346Z,97413.00
2022-10-01T01:48:19.235Z,97412.38
2022-10-01T01:51:02.816Z,97408.28
2022-10-01T01:53:31.878Z,97406.97
2022-10-01T01:56:00.489Z,97407.69
2022-10-01T01:58:28.286Z,97395.47
2022-10-01T02:00:55.230Z,97399.59
2022-10-01T02:03:29.208Z,97404.13
2022-10-01T02:06:27.212Z,97421.94
2022-10-01T02:09:11.463Z,97420.84
2022-10-01T02:11:57.312Z,97424.56
2022-10-01T02:14:36.809Z,97422.38
2022-10-01T02:17:08.549Z,97413.38
2022-10-01T02:19:44.122Z,97407.59
2022-10-01T02:22:26.812Z,97414.34
2022-10-01T02:24:57.689Z,97416.81
2022-10-01T02:27:31.341Z,97423.06
2022-10-01T02:30:03.051Z,97405.84
2022-10-01T02:32:32.081Z,97405.75
2022-10-01T02:35:00.384Z,97417.19
2022-10-01T02:37:28.344Z,97429.38
2022-10-01T02:39:57.333Z,97433.22
2022-10-01T02:42:28.591Z,97429.75
2022-10-01T02:44:56.957Z,97433.69
2022-10-01T02:47:50.938Z,97440.41
2022-10-01T02:50:17.879Z,97445.63
2022-10-01T02:53:05.594Z,97431.13
2022-10-01T02:55:41.353Z,97441.69
2022-10-01T02:58:08.867Z,97437.84
2022-10-01T03:00:36.169Z,97446.06
2022-10-01T03:03:03.117Z,97441.03
2022-10-01T03:05:30.085Z,97438.47
2022-10-01T03:07:57.097Z,97432.31
2022-10-01T03:10:24.004Z,97431.97
2022-10-01T03:12:51.074Z,97439.28
2022-10-01T03:15:19.358Z,97433.88
2022-10-01T03:17:51.235Z,97435.38
2022-10-01T03:20:18.283Z,97445.72
2022-10-01T03:22:46.803Z,97429.47
2022-10-01T03:25:15.267Z,97440.09
2022-10-01T03:27:42.408Z,97446.28
2022-10-01T03:30:10.901Z,97455.34
2022-10-01T03:32:37.803Z,97429.00
2022-10-01T03:35:04.946Z,97459.59
2022-10-01T03:37:31.843Z,97462.06
2022-10-01T03:39:58.703Z,97471.47
2022-10-01T03:42:25.538Z,97468.44
2022-10-01T03:44:53.012Z,97458.22
2022-10-01T03:47:19.932Z,97465.19
2022-10-01T03:49:46.796Z,97459.78
2022-10-01T03:52:13.620Z,97460.75
2022-10-01T03:54:40.462Z,97459.25
2022-10-01T03:57:07.358Z,97459.31
2022-10-01T03:59:34.212Z,97458.38
2022-10-01T04:02:01.188Z,97464.59
2022-10-01T04:04:29.036Z,97467.91
2022-10-01T04:06:56.124Z,97468.69
2022-10-01T04:09:22.965Z,97489.38
2022-10-01T04:11:49.850Z,97494.34
2022-10-01T04:14:16.694Z,97496.38
2022-10-01T04:16:44.166Z,97510.81
2022-10-01T04:19:11.207Z,97504.78
2022-10-01T04:21:39.120Z,97510.00
2022-10-01T04:24:06.300Z,97508.38
2022-10-01T04:26:33.291Z,97520.53
2022-10-01T04:29:00.216Z,97515.03
2022-10-01T04:31:27.604Z,97511.69
2022-10-01T04:33:56.329Z,97508.31
2022-10-01T04:36:24.420Z,97487.97
2022-10-01T04:39:00.767Z,97504.75
2022-10-01T04:41:30.981Z,97479.69
2022-10-01T04:44:01.440Z,97513.34
2022-10-01T04:46:30.321Z,97463.88
2022-10-01T04:48:57.617Z,97501.06
2022-10-01T04:51:24.659Z,97497.88
2022-10-01T04:53:51.518Z,97499.41
2022-10-01T04:56:18.372Z,97494.72
2022-10-01T04:58:45.245Z,97484.63
2022-10-01T05:01:12.147Z,97491.91
2022-10-01T05:03:39.044Z,97487.13
2022-10-01T05:06:06.198Z,97491.09
2022-10-01T05:08:33.152Z,97482.19
2022-10-01T05:11:05.893Z,97494.25
2022-10-01T05:13:38.701Z,97491.09
2022-10-01T05:16:05.830Z,97483.53
2022-10-01T05:18:34.478Z,97485.56
2022-10-01T05:21:08.508Z,97498.00
2022-10-01T05:23:35.520Z,97491.72
2022-10-01T05:26:05.848Z,97497.25
2022-10-01T05:28:33.371Z,97506.75
2022-10-01T05:33:46.003Z,97510.00
2022-10-01T05:36:13.842Z,97502.44
2022-10-01T05:38:42.327Z,97470.75
2022-10-01T05:41:09.683Z,97490.66
2022-10-01T05:43:36.641Z,97498.25
2022-10-01T05:46:06.032Z,97502.06
2022-10-01T05:48:34.655Z,97504.19
2022-10-01T05:51:03.169Z,97507.34
2022-10-01T05:53:30.125Z,97499.16
2022-10-01T05:56:02.925Z,97497.13
2022-10-01T05:58:31.391Z,97500.50
2022-10-01T06:00:58.686Z,97510.59
2022-10-01T06:03:28.709Z,97504.94
2022-10-01T06:05:56.136Z,97511.44
2022-10-01T06:08:23.271Z,97504.13
2022-10-01T06:10:50.278Z,97515.56
2022-10-01T06:13:19.659Z,97509.97
2022-10-01T06:15:49.237Z,97494.16
2022-10-01T06:18:16.257Z,97497.97
2022-10-01T06:20:43.213Z,97501.97
2022-10-01T06:23:12.615Z,97505.22
2022-10-01T06:25:41.919Z,97496.94
2022-10-01T06:28:11.654Z,97509.91
2022-10-01T06:30:40.146Z,97520.59
2022-10-01T06:33:09.613Z,97519.53
2022-10-01T06:35:41.675Z,97525.94
2022-10-01T06:38:09.560Z,97516.53
2022-10-01T06:40:37.622Z,97502.63
2022-10-01T06:43:07.927Z,97510.97
2022-10-01T06:45:40.744Z,97507.63
2022-10-01T06:48:08.204Z,97516.97
2022-10-01T06:50:35.603Z,97510.53
2022-10-01T06:53:04.200Z,97512.91
2022-10-01T06:55:33.593Z,97517.44
2022-10-01T06:58:01.493Z,97504.03
2022-10-01T07:00:31.071Z,97474.97
2022-10-01T07:02:58.571Z,97496.53
2022-10-01T07:05:25.593Z,97505.50
2022-10-01T07:11:12.065Z,97494.56
2022-10-01T07:13:41.205Z,97491.16
2022-10-01T07:16:08.786Z,97492.56
2022-10-01T07:18:36.003Z,97490.59
2022-10-01T07:21:02.969Z,97496.97
2022-10-01T07:23:30.040Z,97501.78
2022-10-01T07:25:59.511Z,97493.06
2022-10-01T07:28:28.195Z,97500.59
2022-10-01T07:31:11.291Z,97491.13
2022-10-01T07:33:41.870Z,97501.25
2022-10-01T07:36:13.812Z,97491.38
2022-10-01T07:38:43.894Z,97502.16
2022-10-01T07:41:10.998Z,97500.78
2022-10-01T07:43:39.452Z,97490.50
2022-10-01T07:46:07.267Z,97513.91
2022-10-01T07:48:34.260Z,97510.16
2022-10-01T07:51:01.629Z,97500.81
2022-10-01T07:53:28.579Z,97499.41
2022-10-01T07:55:55.516Z,97489.38
2022-10-01T07:58:26.106Z,97486.34
2022-10-01T08:00:58.405Z,97480.22
2022-10-01T08:03:25.775Z,97480.50
2022-10-01T08:05:54.273Z,97469.91
2022-10-01T08:08:21.525Z,97477.41
2022-10-01T08:10:50.961Z,97475.25
2022-10-01T08:13:18.297Z,97478.38
2022-10-01T08:15:47.558Z,97477.22
2022-10-01T08:18:14.685Z,97481.94
2022-10-01T08:20:41.696Z,97459.06
2022-10-01T08:23:11.425Z,97483.38
2022-10-01T08:25:39.005Z,97435.00
2022-10-01T08:28:07.333Z,97438.19
2022-10-01T08:30:35.903Z,97443.03
2022-10-01T08:33:04.067Z,97450.16
2022-10-01T08:35:31.001Z,97453.09
2022-10-01T08:38:02.372Z,97457.22
2022-10-01T08:40:30.780Z,97467.19
2022-10-01T08:43:02.635Z,97462.44
2022-10-01T08:45:38.589Z,97450.59
2022-10-01T08:48:12.972Z,97447.44
2022-10-01T08:50:57.629Z,97470.47
2022-10-01T08:53:57.610Z,97471.09
2022-10-01T08:56:30.951Z,97476.09
2022-10-01T08:59:02.705Z,97454.03
2022-10-01T09:01:31.094Z,97461.56
2022-10-01T09:03:59.529Z,97456.25
2022-10-01T09:06:27.884Z,97452.22
2022-10-01T09:09:25.978Z,97451.16
2022-10-01T09:12:46.950Z,97452.34
2022-10-01T09:15:42.604Z,97437.19
2022-10-01T09:18:31.103Z,97436.78
2022-10-01T09:20:59.114Z,97424.19
2022-10-01T09:23:39.965Z,97409.84
2022-10-01T09:26:12.366Z,97433.38
2022-10-01T09:28:41.409Z,97421.94
2022-10-01T09:31:20.343Z,97415.41
2022-10-01T09:34:02.692Z,97398.75
2022-10-01T09:37:06.423Z,97406.97
2022-10-01T09:39:57.043Z,97414.97
2022-10-01T09:42:28.005Z,97418.25
2022-10-01T09:44:56.435Z,97411.44
2022-10-01T09:47:25.785Z,97416.81
2022-10-01T09:49:52.782Z,97378.41
2022-10-01T09:52:26.617Z,97398.09
2022-10-01T09:55:05.343Z,97397.91
2022-10-01T09:57:39.129Z,97400.41
2022-10-01T10:00:18.446Z,97395.22
2022-10-01T10:02:49.539Z,97395.22
2022-10-01T10:05:22.784Z,97391.72
2022-10-01T10:07:54.052Z,97380.78
2022-10-01T10:10:29.053Z,97383.25
2022-10-01T10:13:04.892Z,97399.03
2022-10-01T10:15:33.285Z,97391.91
2022-10-01T10:18:12.581Z,97402.84
2022-10-01T10:20:43.558Z,97404.03
2022-10-01T10:23:22.017Z,97413.66
2022-10-01T10:25:56.046Z,97410.50
2022-10-01T10:28:24.371Z,97408.13
2022-10-01T10:30:54.698Z,97419.16
2022-10-01T10:33:24.731Z,97418.97
2022-10-01T10:36:04.265Z,97424.78
2022-10-01T10:38:33.777Z,97408.50
2022-10-01T10:41:02.064Z,97422.66
2022-10-01T10:43:36.702Z,97404.53
2022-10-01T10:46:04.260Z,97381.56
2022-10-01T10:48:39.320Z,97413.41
2022-10-01T10:51:06.519Z,97421.88
2022-10-01T10:53:45.639Z,97412.72
2022-10-01T10:56:22.744Z,97392.56
2022-10-01T10:58:53.767Z,97400.38
2022-10-01T11:01:29.791Z,97400.22
2022-10-01T11:04:00.721Z,97402.06
2022-10-01T11:06:30.385Z,97416.91
2022-10-01T11:09:04.859Z,97423.19
2022-10-01T11:11:42.692Z,97423.56
2022-10-01T11:14:56.453Z,97408.75
2022-10-01T11:17:26.338Z,97434.03
2022-10-01T11:20:16.357Z,97421.72
2022-10-01T11:22:55.824Z,97411.75
2022-10-01T11:25:41.923Z,97425.03
2022-10-01T11:28:44.933Z,97438.84
2022-10-01T11:31:17.933Z,97441.50
2022-10-01T11:34:23.210Z,97421.16
2022-10-01T11:37:02.425Z,97421.81
2022-10-01T11:39:32.164Z,97404.78
2022-10-01T11:42:22.401Z,97410.75
2022-10-01T11:45:00.670Z,97401.69
2022-10-01T11:47:36.712Z,97406.50
2022-10-01T11:50:16.001Z,97397.31
2022-10-01T11:53:01.156Z,97413.34
2022-10-01T11:56:13.499Z,97413.34
2022-10-01T11:58:53.057Z,97412.94
2022-10-01T12:01:42.215Z,97395.75
2022-10-01T12:04:16.626Z,97404.41
2022-10-01T12:07:00.321Z,97403.13
2022-10-01T12:09:38.501Z,97403.47
2022-10-01T12:12:10.955Z,97399.56
2022-10-01T12:14:46.154Z,97397.69
2022-10-01T12:17:13.206Z,97388.44
2022-10-01T12:19:46.180Z,97374.09
2022-10-01T12:22:20.272Z,97370.03
2022-10-01T12:24:50.758Z,97357.34
2022-10-01T12:27:48.633Z,97340.53
2022-10-01T12:30:22.371Z,97335.91
2022-10-01T12:33:04.866Z,97321.59
2022-10-01T12:35:53.600Z,97312.81
2022-10-01T12:38:29.879Z,97307.56
2022-10-01T12:41:14.759Z,97321.97
2022-10-01T12:44:18.465Z,97342.00
2022-10-01T12:47:33.344Z,97318.50
2022-10-01T12:50:12.695Z,97329.34
2022-10-01T12:52:39.947Z,97322.91
2022-10-01T12:55:13.284Z,97308.06
2022-10-01T12:58:03.711Z,97275.63
2022-10-01T13:01:00.726Z,97271.16
2022-10-01T13:03:57.047Z,97268.84
2022-10-01T13:06:40.013Z,97267.50
2022-10-01T13:09:06.888Z,97271.97
2022-10-01T13:11:42.930Z,97269.34
2022-10-01T13:14:17.479Z,97247.47
2022-10-01T13:17:07.832Z,97259.72
2022-10-01T13:19:59.059Z,97255.25
2022-10-01T13:22:43.260Z,97241.78
2022-10-01T13:25:29.253Z,97247.06
2022-10-01T13:28:03.982Z,97243.38
2022-10-01T13:31:09.779Z,97230.50
2022-10-01T13:33:37.350Z,97222.16
2022-10-01T13:36:06.885Z,97208.19
2022-10-01T13:38:47.703Z,97182.59
2022-10-01T13:41:22.236Z,97185.47
2022-10-01T13:44:11.567Z,97169.38
2022-10-01T13:46:52.589Z,97143.06
2022-10-01T13:49:33.408Z,97171.94
2022-10-01T13:52:03.058Z,97169.69
2022-10-01T13:54:45.067Z,97163.47
2022-10-01T13:57:37.953Z,97141.88
2022-10-01T14:00:17.164Z,97131.44
2022-10-01T14:02:57.527Z,97137.13
2022-10-01T14:05:39.907Z,97127.09
2022-10-01T14:08:16.994Z,97119.31
2022-10-01T14:11:15.077Z,97115.22
2022-10-01T14:14:06.616Z,97119.44
2022-10-01T14:16:43.817Z,97116.56
2022-10-01T14:19:19.730Z,97065.53
2022-10-01T14:22:04.682Z,97120.47
2022-10-01T14:25:22.315Z,97115.72
2022-10-01T14:28:19.952Z,97097.28
2022-10-01T14:31:11.465Z,97093.81
2022-10-01T14:33:47.406Z,97094.34
2022-10-01T14:36:19.997Z,97078.09
2022-10-01T14:38:46.928Z,97095.94
2022-10-01T14:41:23.331Z,97080.06
2022-10-01T14:43:50.349Z,97076.81
2022-10-01T14:46:19.501Z,97071.13
2022-10-01T14:48:57.396Z,97060.72
2022-10-01T14:51:30.142Z,97071.34
2022-10-01T14:53:59.923Z,97081.28
2022-10-01T14:56:28.708Z,97089.06
2022-10-01T14:59:03.334Z,97067.78
2022-10-01T15:01:30.782Z,97088.34
2022-10-01T15:03:57.964Z,97074.50
2022-10-01T15:06:41.579Z,97076.28
2022-10-01T15:09:15.412Z,97085.28
2022-10-01T15:11:44.717Z,97090.94
2022-10-01T15:14:18.171Z,97081.53
2022-10-01T15:16:45.891Z,97072.22
2022-10-01T15:19:17.164Z,97044.91
2022-10-01T15:21:56.462Z,97029.03
2022-10-01T15:24:40.520Z,97022.13
2022-10-01T15:27:10.859Z,97025.56
2022-10-01T15:29:43.253Z,97037.88
2022-10-01T15:32:15.061Z,97039.16
2022-10-01T15:34:49.316Z,97054.66
2022-10-01T15:37:34.438Z,97061.38
2022-10-01T15:40:02.770Z,97057.75
2022-10-01T15:42:35.266Z,97057.25
2022-10-01T15:45:08.233Z,97061.16
2022-10-01T15:48:01.709Z,97060.00
2022-10-01T15:50:28.564Z,97062.50
2022-10-01T15:53:18.205Z,97061.69
2022-10-01T15:55:54.348Z,97065.91
2022-10-01T15:58:35.196Z,97066.44
2022-10-01T16:01:02.160Z,97057.69
2022-10-01T16:03:40.005Z,97048.63
2022-10-01T16:06:18.480Z,97047.38
2022-10-01T16:08:51.539Z,97030.81
2022-10-01T16:11:24.161Z,97029.16
2022-10-01T16:13:52.758Z,97039.47
2022-10-01T16:16:30.976Z,97039.47
2022-10-01T16:19:23.117Z,97031.44
2022-10-01T16:22:20.299Z,97029.56
2022-10-01T16:25:07.735Z,97027.84
2022-10-01T16:27:45.905Z,97020.53
2022-10-01T16:30:23.900Z,97021.97
2022-10-01T16:32:55.116Z,97010.63
2022-10-01T16:35:24.464Z,97004.50
2022-10-01T16:37:57.982Z,97001.59
2022-10-01T16:40:27.130Z,96971.25
2022-10-01T16:42:54.482Z,96980.72
2022-10-01T16:45:25.737Z,96982.97
2022-10-01T16:47:53.773Z,96981.41
2022-10-01T16:50:21.809Z,96968.81
2022-10-01T16:52:52.853Z,96974.00
2022-10-01T16:55:25.476Z,96976.72
2022-10-01T16:57:54.677Z,96951.03
2022-10-01T17:00:24.306Z,96968.81
2022-10-01T17:02:51.867Z,96966.56
2022-10-01T17:05:22.279Z,96941.06
2022-10-01T17:07:50.522Z,96924.84
2022-10-01T17:10:19.349Z,96961.84
2022-10-01T17:12:49.650Z,96968.03
2022-10-01T17:15:26.498Z,96968.13
2022-10-01T17:17:59.902Z,96950.66
2022-10-01T17:20:29.274Z,96943.13
2022-10-01T17:22:58.090Z,96930.38
2022-10-01T17:25:32.177Z,96921.78
2022-10-01T17:27:59.780Z,96921.94
2022-10-01T17:30:29.217Z,96914.44
2022-10-01T17:32:58.820Z,96887.72
2022-10-01T17:35:27.243Z,96916.66
2022-10-01T17:37:54.193Z,96911.38
2022-10-01T17:40:21.098Z,96909.13
2022-10-01T17:42:48.083Z,96897.78
2022-10-01T17:45:15.497Z,96898.88
2022-10-01T17:47:44.910Z,96897.50
2022-10-01T17:50:12.260Z,96884.34
2022-10-01T17:52:39.271Z,96890.44
2022-10-01T17:55:06.888Z,96891.13
2022-10-01T17:57:35.196Z,96881.44
2022-10-01T18:00:04.421Z,96878.53
2022-10-01T18:02:43.327Z,96858.19
2022-10-01T18:05:14.476Z,96862.59
2022-10-01T18:07:43.564Z,96852.47
2022-10-01T18:10:12.584Z,96858.88
2022-10-01T18:12:40.279Z,96852.22
2022-10-01T18:15:07.713Z,96848.47
2022-10-01T18:20:23.514Z,96851.25
2022-10-01T18:22:50.907Z,96851.25
2022-10-01T18:25:19.437Z,96853.63
2022-10-01T18:27:50.224Z,96849.03
2022-10-01T18:30:18.267Z,96856.81
2022-10-01T18:32:50.837Z,96851.25
2022-10-01T18:35:35.136Z,96845.50
2022-10-01T18:38:36.406Z,96845.38
2022-10-01T18:41:10.074Z,96830.53
2022-10-01T18:43:38.739Z,96826.06
2022-10-01T18:46:17.432Z,96841.72
2022-10-01T18:49:22.138Z,96832.66
2022-10-01T18:51:57.098Z,96834.88
2022-10-01T18:54:39.372Z,96845.13
2022-10-01T18:57:33.844Z,96822.09
2022-10-01T19:00:08.668Z,96854.16
2022-10-01T19:02:53.869Z,96855.53
2022-10-01T19:05:42.594Z,96849.41
2022-10-01T19:08:32.934Z,96850.75
2022-10-01T19:11:24.593Z,96837.31
2022-10-01T19:13:52.455Z,96848.38
2022-10-01T19:16:25.203Z,96849.31
2022-10-01T19:19:18.311Z,96844.22
2022-10-01T19:21:54.158Z,96835.09
2022-10-01T19:24:54.398Z,96823.91
2022-10-01T19:27:46.748Z,96807.84
2022-10-01T19:30:16.554Z,96813.75
2022-10-01T19:32:56.556Z,96810.31
2022-10-01T19:35:29.724Z,96812.94
2022-10-01T19:38:21.562Z,96790.25
2022-10-01T19:40:55.955Z,96780.69
2022-10-01T19:43:44.431Z,96770.44
2022-10-01T19:46:29.766Z,96743.72
2022-10-01T19:49:12.703Z,96760.03
2022-10-01T19:51:44.329Z,96740.94
2022-10-01T19:54:17.625Z,96751.06
2022-10-01T19:56:53.859Z,96731.78
2022-10-01T19:59:41.327Z,96731.22
2022-10-01T20:05:29.432Z,96717.41
2022-10-01T20:08:01.303Z,96721.84
2022-10-01T20:10:39.148Z,96710.16
2022-10-01T20:13:24.359Z,96717.59
2022-10-01T20:16:24.785Z,96705.59
2022-10-01T20:19:09.464Z,96721.47
2022-10-01T20:22:08.433Z,96725.25
2022-10-01T20:24:54.917Z,96723.84
2022-10-01T20:27:30.363Z,96709.72
2022-10-01T20:30:14.608Z,96693.59
2022-10-01T20:33:01.760Z,96691.34
2022-10-01T20:35:53.052Z,96690.56
2022-10-01T20:38:25.262Z,96683.53
2022-10-01T20:41:01.696Z,96672.19
2022-10-01T20:43:36.546Z,96682.22
2022-10-01T20:46:11.749Z,96667.78
2022-10-01T20:48:44.559Z,96663.53
2022-10-01T20:51:25.406Z,96673.03
2022-10-01T20:53:59.170Z,96659.88
2022-10-01T20:56:38.430Z,96653.69
2022-10-01T20:59:18.236Z,96641.66
2022-10-01T21:02:02.357Z,96635.91
2022-10-01T21:04:34.290Z,96626.75
2022-10-01T21:07:26.114Z,96633.00
2022-10-01T21:09:58.980Z,96621.00
2022-10-01T21:12:36.604Z,96640.66
2022-10-01T21:15:05.140Z,96633.44
2022-10-01T21:18:06.891Z,96637.31
2022-10-01T21:20:36.754Z,96618.94
2022-10-01T21:23:31.484Z,96612.19
2022-10-01T21:26:24.722Z,96603.59
2022-10-01T21:29:19.562Z,96596.38
2022-10-01T21:32:04.712Z,96596.53
2022-10-01T21:34:46.408Z,96590.81
2022-10-01T21:38:01.404Z,96591.13
2022-10-01T21:40:54.100Z,96581.75
2022-10-01T21:43:44.751Z,96607.31
2022-10-01T21:46:33.360Z,96612.00
2022-10-01T21:49:18.566Z,96609.38
2022-10-01T21:51:58.627Z,96582.47
2022-10-01T21:54:49.536Z,96647.88
2022-10-01T21:57:22.460Z,96656.91
2022-10-01T22:00:15.450Z,96653.72
2022-10-01T22:03:09.227Z,96628.63
2022-10-01T22:05:40.802Z,96598.78
2022-10-01T22:08:34.111Z,96591.97
2022-10-01T22:11:07.452Z,96561.41
2022-10-01T22:13:37.409Z,96559.19
2022-10-01T22:16:10.969Z,96538.69
2022-10-01T22:18:49.103Z,96529.19
2022-10-01T22:21:48.341Z,96535.53
2022-10-01T22:24:21.000Z,96522.97
2022-10-01T22:26:54.635Z,96530.50
2022-10-01T22:29:26.112Z,96534.22
2022-10-01T22:31:58.276Z,96530.66
2022-10-01T22:34:48.983Z,96537.34
2022-10-01T22:37:24.758Z,96520.47
2022-10-01T22:39:59.237Z,96514.50
2022-10-01T22:42:32.586Z,96500.06
2022-10-01T22:45:09.414Z,96496.53
2022-10-01T22:47:51.624Z,96509.63
2022-10-01T22:50:44.904Z,96505.81
2022-10-01T22:53:30.057Z,96519.44
2022-10-01T22:55:57.820Z,96522.78
2022-10-01T22:58:39.467Z,96539.97
2022-10-01T23:01:21.029Z,96541.34
2022-10-01T23:04:06.730Z,96560.97
2022-10-01T23:06:39.310Z,96590.28
2022-10-01T23:09:29.105Z,96612.53
2022-10-01T23:12:11.694Z,96598.00
2022-10-01T23:14:53.547Z,96573.59
2022-10-01T23:17:30.265Z,96601.31
2022-10-01T23:20:30.132Z,96649.78
2022-10-01T23:30:04.881Z,96666.88
2022-10-01T23:32:54.619Z,96675.72
2022-10-01T23:35:58.685Z,96665.09
2022-10-01T23:38:33.344Z,96666.63
2022-10-01T23:41:11.112Z,96669.00
2022-10-01T23:43:54.851Z,96573.97
2022-10-01T23:46:27.173Z,96591.63
2022-10-01T23:49:05.278Z,96575.81
2022-10-01T23:51:37.262Z,96592.59
2022-10-01T23:54:07.090Z,96602.88
2022-10-01T23:56:49.336Z,96603.16
2022-10-01T23:59:42.324Z,96595.22
